Time;durP1;ratioP1;P1;durP2;ratioP2;P2;SDS_P1;SDS_P2;PMS_P1;PMS_P2;Temp;Humidity;BMP_temperature;BMP_pressure;BME280_temperature;BME280_humidity;BME280_pressure;Samples;Min_cycle;Max_cycle;Signal;HPM_P1;HPM_P2
2022/09/07 00:00:15;;;;;;;6.05;2.70;;;22.50;69.20;;;;;;5095201;28;20411;-65
2022/09/07 00:02:40;;;;;;;6.68;3.03;;;22.40;69.40;;;;;;5095940;28;20093;-66
2022/09/07 00:05:06;;;;;;;6.65;2.92;;;22.30;69.40;;;;;;5094976;28;20127;-66
2022/09/07 00:07:32;;;;;;;5.95;2.60;;;22.20;69.50;;;;;;5083098;28;20032;-66
2022/09/07 00:09:58;;;;;;;6.38;2.80;;;22.20;69.70;;;;;;5091247;28;20487;-65
2022/09/07 00:12:23;;;;;;;6.07;3.00;;;22.10;69.80;;;;;;5084891;28;20047;-66
2022/09/07 00:14:49;;;;;;;6.22;2.60;;;22.10;70.00;;;;;;5092372;28;20028;-65
2022/09/07 00:17:15;;;;;;;6.57;2.83;;;22.10;70.00;;;;;;5089550;28;20048;-65
2022/09/07 00:19:40;;;;;;;8.20;2.95;;;22.10;70.00;;;;;;5085888;28;20050;-65
2022/09/07 00:22:06;;;;;;;7.63;2.83;;;22.00;70.00;;;;;;5094810;28;20116;-65
2022/09/07 00:24:31;;;;;;;9.18;3.20;;;22.00;70.10;;;;;;5095539;28;20074;-65
2022/09/07 00:26:57;;;;;;;6.60;2.30;;;22.00;70.00;;;;;;5091125;28;20031;-66
2022/09/07 00:29:23;;;;;;;6.10;2.95;;;22.10;69.80;;;;;;5094757;28;20059;-66
2022/09/07 00:31:48;;;;;;;6.45;2.90;;;22.10;70.50;;;;;;5077660;28;20133;-66
2022/09/07 00:34:14;;;;;;;6.03;2.55;;;22.10;69.80;;;;;;5094613;28;20424;-66
2022/09/07 00:36:39;;;;;;;6.68;2.55;;;22.00;69.90;;;;;;5093859;28;20127;-66
2022/09/07 00:39:05;;;;;;;7.18;2.50;;;22.00;70.10;;;;;;5093773;28;20028;-66
2022/09/07 00:41:31;;;;;;;6.32;2.65;;;22.10;70.30;;;;;;5095323;28;20024;-66
2022/09/07 00:44:17;;;;;;;5.82;2.50;;;22.10;70.50;;;;;;5095130;28;20029;-66
2022/09/07 00:46:44;;;;;;;7.55;2.80;;;22.00;70.50;;;;;;5093383;28;20028;-66
2022/09/07 00:49:15;;;;;;;6.22;2.38;;;22.00;70.50;;;;;;5091253;28;20032;-66
2022/09/07 00:51:56;;;;;;;7.10;2.40;;;22.00;70.70;;;;;;5094331;28;20028;-66
2022/09/07 00:54:35;;;;;;;4.45;2.08;;;22.00;70.60;;;;;;5094957;28;20118;-66
2022/09/07 00:57:00;;;;;;;5.53;2.28;;;22.00;70.50;;;;;;5075831;28;20074;-66
2022/09/07 00:59:30;;;;;;;4.90;2.35;;;22.00;70.40;;;;;;5076258;28;20024;-66
2022/09/07 01:01:56;;;;;;;4.57;2.05;;;22.00;70.50;;;;;;5094156;28;20036;-66
2022/09/07 01:04:22;;;;;;;6.07;2.30;;;21.90;70.50;;;;;;5076865;28;20131;-66
2022/09/07 01:06:48;;;;;;;5.55;2.50;;;21.90;70.70;;;;;;5092323;28;20028;-66
2022/09/07 01:09:21;;;;;;;4.82;2.25;;;21.80;70.90;;;;;;5076314;28;20027;-66
2022/09/07 01:11:49;;;;;;;4.72;2.15;;;21.80;70.90;;;;;;5094672;28;20028;-66
2022/09/07 01:14:22;;;;;;;6.80;2.40;;;21.80;70.90;;;;;;5093483;28;20111;-66
2022/09/07 01:17:02;;;;;;;5.30;2.08;;;21.80;71.00;;;;;;5091298;28;20044;-66
2022/09/07 01:19:40;;;;;;;5.95;2.33;;;21.80;71.10;;;;;;5093093;28;20083;-66
2022/09/07 01:22:33;;;;;;;4.65;2.03;;;21.80;71.20;;;;;;5094363;28;20108;-66
2022/09/07 01:25:25;;;;;;;5.38;1.77;;;21.80;71.30;;;;;;5092278;28;20042;-66
2022/09/07 01:28:03;;;;;;;4.28;1.60;;;21.80;71.30;;;;;;4991013;28;20043;-66
2022/09/07 01:30:33;;;;;;;5.45;1.77;;;21.70;71.30;;;;;;4991838;28;20121;-66
2022/09/07 01:33:14;;;;;;;4.63;1.57;;;21.70;71.20;;;;;;4978114;28;20042;-66
2022/09/07 01:35:58;;;;;;;4.15;1.60;;;21.70;71.30;;;;;;4983041;28;20312;-66
2022/09/07 01:38:44;;;;;;;4.22;1.50;;;21.70;71.30;;;;;;4993092;28;20112;-66
2022/09/07 01:41:31;;;;;;;4.00;1.60;;;21.70;71.30;;;;;;4988465;28;20592;-66
2022/09/07 01:44:19;;;;;;;3.08;1.33;;;21.70;71.20;;;;;;4988159;28;20058;-66
2022/09/07 01:46:48;;;;;;;3.75;1.58;;;21.60;71.30;;;;;;4990133;28;20042;-66
2022/09/07 01:49:21;;;;;;;3.47;1.40;;;21.60;71.30;;;;;;4988123;28;20030;-66
2022/09/07 01:51:51;;;;;;;4.20;1.40;;;21.60;71.40;;;;;;4983398;28;20497;-66
2022/09/07 01:54:56;;;;;;;4.97;1.83;;;21.60;71.40;;;;;;4975979;28;20093;-66
2022/09/07 01:57:29;;;;;;;4.03;1.50;;;21.60;71.40;;;;;;4916055;29;20376;-66
2022/09/07 02:00:17;;;;;;;3.25;1.50;;;21.60;71.50;;;;;;4919283;29;20059;-66
2022/09/07 02:03:06;;;;;;;3.10;1.30;;;21.60;71.30;;;;;;4920167;29;20173;-66
2022/09/07 02:05:46;;;;;;;3.25;1.40;;;21.50;71.30;;;;;;4978946;28;20056;-66
2022/09/07 02:08:22;;;;;;;5.10;1.52;;;21.50;71.40;;;;;;4996528;28;20118;-66
2022/09/07 02:11:01;;;;;;;3.75;1.60;;;21.50;71.50;;;;;;4996554;28;20027;-66
2022/09/07 02:14:02;;;;;;;2.58;1.20;;;21.50;71.50;;;;;;4995970;28;20093;-66
2022/09/07 02:16:29;;;;;;;4.55;1.42;;;21.50;71.30;;;;;;4985902;28;20233;-66
2022/09/07 02:18:59;;;;;;;3.53;1.40;;;21.40;71.40;;;;;;4996574;28;20446;-66
2022/09/07 02:21:40;;;;;;;5.47;1.70;;;21.40;71.60;;;;;;4996632;28;20109;-66
2022/09/07 02:24:15;;;;;;;4.97;1.85;;;21.40;71.60;;;;;;4980291;28;20281;-66
2022/09/07 02:26:44;;;;;;;4.90;1.55;;;21.40;71.60;;;;;;4994413;28;20479;-66
2022/09/07 02:29:10;;;;;;;3.47;1.33;;;21.40;71.70;;;;;;4995628;28;20208;-66
2022/09/07 02:31:35;;;;;;;2.85;1.38;;;21.40;71.80;;;;;;4996511;28;20507;-65
2022/09/07 02:34:01;;;;;;;2.78;1.30;;;21.40;71.70;;;;;;5072781;28;20204;-65
2022/09/07 02:36:33;;;;;;;4.22;1.40;;;21.40;71.80;;;;;;5095492;28;20073;-65
2022/09/07 02:38:59;;;;;;;4.45;1.67;;;21.40;71.90;;;;;;5096449;28;20036;-65
2022/09/07 02:41:30;;;;;;;4.80;1.70;;;21.40;71.90;;;;;;5096101;28;20463;-65
2022/09/07 02:43:56;;;;;;;3.55;1.40;;;21.40;71.90;;;;;;5097595;28;20046;-65
2022/09/07 02:46:53;;;;;;;3.28;1.35;;;21.40;71.90;;;;;;5093568;28;20028;-65
2022/09/07 02:49:44;;;;;;;3.75;1.30;;;21.40;71.90;;;;;;5094856;28;20408;-65
2022/09/07 02:52:09;;;;;;;3.28;1.40;;;21.40;71.70;;;;;;5096149;28;20048;-65
2022/09/07 02:54:41;;;;;;;4.97;1.45;;;21.30;71.80;;;;;;5097159;28;20240;-65
2022/09/07 02:57:28;;;;;;;4.50;1.83;;;21.30;71.80;;;;;;5096087;28;20046;-66
2022/09/07 03:00:07;;;;;;;4.88;1.60;;;21.30;71.80;;;;;;5095616;28;20035;-66
2022/09/07 03:02:51;;;;;;;4.63;1.50;;;21.30;71.80;;;;;;5096882;28;20368;-66
2022/09/07 03:05:36;;;;;;;4.43;1.52;;;21.30;71.80;;;;;;5091698;28;20127;-66
2022/09/07 03:08:07;;;;;;;2.83;1.40;;;21.30;71.80;;;;;;5087828;28;20032;-66
2022/09/07 03:10:35;;;;;;;3.35;1.50;;;21.30;71.90;;;;;;5095573;28;20028;-66
2022/09/07 03:13:01;;;;;;;3.90;1.73;;;21.30;71.90;;;;;;5096916;28;20024;-66
2022/09/07 03:15:27;;;;;;;4.53;1.70;;;21.20;71.80;;;;;;5093239;28;20409;-65
2022/09/07 03:17:53;;;;;;;3.20;1.52;;;21.30;71.90;;;;;;5092265;28;20031;-66
2022/09/07 03:20:19;;;;;;;4.05;1.55;;;21.30;72.00;;;;;;5096201;28;20365;-66
2022/09/07 03:22:47;;;;;;;4.57;1.65;;;21.20;72.00;;;;;;5097291;28;20139;-66
2022/09/07 03:25:13;;;;;;;3.85;1.55;;;21.30;72.00;;;;;;5094589;28;20364;-65
2022/09/07 03:27:39;;;;;;;4.97;1.70;;;21.20;71.90;;;;;;5095247;28;20709;-65
2022/09/07 03:30:07;;;;;;;4.60;1.95;;;21.20;72.10;;;;;;5072004;28;20059;-65
2022/09/07 03:32:35;;;;;;;5.00;1.85;;;21.20;72.00;;;;;;5093334;28;20036;-65
2022/09/07 03:35:01;;;;;;;3.85;1.58;;;21.20;72.20;;;;;;5089109;28;20098;-66
2022/09/07 03:37:27;;;;;;;4.80;1.80;;;21.20;72.30;;;;;;5083407;28;20086;-66
2022/09/07 03:39:53;;;;;;;3.17;1.50;;;21.20;72.20;;;;;;5091489;28;20032;-66
2022/09/07 03:42:20;;;;;;;6.45;1.85;;;21.20;72.30;;;;;;5095487;28;20035;-66
2022/09/07 03:44:47;;;;;;;3.13;1.85;;;21.20;72.30;;;;;;5095322;28;20480;-66
2022/09/07 03:47:13;;;;;;;3.88;1.75;;;21.30;72.30;;;;;;5095132;28;20020;-66
2022/09/07 03:49:38;;;;;;;4.38;1.90;;;21.20;72.20;;;;;;5094262;28;20020;-66
2022/09/07 03:52:04;;;;;;;4.95;2.17;;;21.30;72.30;;;;;;5092452;28;20028;-66
2022/09/07 03:54:29;;;;;;;5.13;2.03;;;21.20;72.30;;;;;;5078734;28;20024;-66
2022/09/07 03:56:55;;;;;;;4.82;1.90;;;21.30;72.50;;;;;;5092311;28;20429;-66
2022/09/07 03:59:21;;;;;;;4.93;1.90;;;21.30;72.40;;;;;;5087430;28;20040;-66
2022/09/07 04:01:46;;;;;;;5.13;2.17;;;21.30;72.50;;;;;;5088194;28;20353;-66
2022/09/07 04:04:12;;;;;;;5.47;1.90;;;21.30;72.50;;;;;;5088300;28;20013;-66
2022/09/07 04:06:38;;;;;;;7.88;2.45;;;21.30;72.30;;;;;;5071944;28;20039;-66
2022/09/07 04:09:06;;;;;;;5.60;2.10;;;21.30;72.30;;;;;;5095847;28;20021;-66
2022/09/07 04:11:32;;;;;;;12.05;2.40;;;21.30;72.30;;;;;;5074416;28;20031;-66
2022/09/07 04:13:58;;;;;;;4.95;2.10;;;21.30;72.20;;;;;;5095700;28;20040;-66
2022/09/07 04:16:25;;;;;;;7.00;2.13;;;21.30;72.40;;;;;;5085755;28;20136;-66
2022/09/07 04:18:53;;;;;;;5.03;1.92;;;21.30;72.60;;;;;;5093342;28;20032;-66
2022/09/07 04:21:20;;;;;;;6.97;2.50;;;21.30;72.60;;;;;;5095077;28;20028;-66
2022/09/07 04:23:47;;;;;;;5.43;2.67;;;21.30;72.60;;;;;;5086408;28;20302;-66
2022/09/07 04:26:21;;;;;;;7.10;3.65;;;21.30;72.60;;;;;;5084325;28;20028;-65
2022/09/07 04:28:47;;;;;;;7.60;3.75;;;21.30;72.60;;;;;;5082002;28;20057;-66
2022/09/07 04:31:15;;;;;;;8.18;3.75;;;21.30;72.60;;;;;;5081725;28;20353;-65
2022/09/07 04:33:41;;;;;;;7.00;3.33;;;21.30;72.50;;;;;;5089029;28;20134;-65
2022/09/07 04:36:07;;;;;;;5.88;3.05;;;21.30;72.50;;;;;;5092264;28;20040;-65
2022/09/07 04:38:33;;;;;;;6.57;3.53;;;21.30;72.60;;;;;;5095602;28;20032;-65
2022/09/07 04:41:11;;;;;;;7.30;3.88;;;21.30;72.70;;;;;;5095472;28;20035;-65
2022/09/07 04:43:38;;;;;;;7.55;4.05;;;21.30;72.70;;;;;;5094886;28;20090;-65
2022/09/07 04:46:05;;;;;;;7.10;4.10;;;21.30;72.90;;;;;;5090736;28;20165;-66
2022/09/07 04:48:31;;;;;;;7.90;4.25;;;21.30;72.90;;;;;;5095327;28;20028;-65
2022/09/07 04:51:04;;;;;;;8.15;4.63;;;21.30;73.00;;;;;;5095390;28;20039;-65
2022/09/07 04:53:30;;;;;;;7.68;4.60;;;21.30;73.20;;;;;;5053916;28;20020;-65
2022/09/07 04:55:59;;;;;;;8.75;4.43;;;21.30;73.20;;;;;;5094448;28;20028;-66
2022/09/07 04:58:25;;;;;;;9.00;4.57;;;21.30;73.20;;;;;;5092805;28;20043;-65
2022/09/07 05:00:51;;;;;;;10.15;5.13;;;21.30;73.30;;;;;;5062758;28;20028;-65
2022/09/07 05:03:17;;;;;;;9.13;5.20;;;21.30;73.50;;;;;;5069834;28;20030;-65
2022/09/07 05:05:43;;;;;;;9.40;5.22;;;21.20;73.40;;;;;;5076788;28;20035;-65
2022/09/07 05:08:10;;;;;;;8.73;5.30;;;21.20;73.50;;;;;;5092954;28;20338;-65
2022/09/07 05:10:35;;;;;;;8.65;5.80;;;21.20;73.60;;;;;;5094660;28;20043;-65
2022/09/07 05:13:01;;;;;;;8.02;5.30;;;21.20;73.70;;;;;;5093915;28;20059;-65
2022/09/07 05:15:29;;;;;;;10.40;7.18;;;21.20;73.70;;;;;;5092764;28;20024;-65
2022/09/07 05:17:55;;;;;;;10.02;6.35;;;21.20;73.70;;;;;;5067018;28;20527;-66
2022/09/07 05:20:21;;;;;;;12.65;7.13;;;21.20;73.80;;;;;;5090158;28;20040;-65
2022/09/07 05:22:47;;;;;;;9.95;6.90;;;21.20;73.80;;;;;;5093558;28;20092;-65
2022/09/07 05:25:13;;;;;;;11.25;6.45;;;21.10;73.80;;;;;;5093415;28;20186;-65
2022/09/07 05:27:38;;;;;;;11.13;6.82;;;21.10;73.80;;;;;;5070904;28;20032;-65
2022/09/07 05:30:04;;;;;;;9.35;5.85;;;21.10;73.90;;;;;;5069300;28;20118;-65
2022/09/07 05:32:30;;;;;;;10.88;6.88;;;21.10;73.90;;;;;;5075731;28;20028;-65
2022/09/07 05:34:55;;;;;;;9.80;6.65;;;21.10;74.10;;;;;;5093406;28;20120;-65
2022/09/07 05:37:21;;;;;;;11.82;7.68;;;21.20;74.10;;;;;;5090857;28;20024;-65
2022/09/07 05:39:47;;;;;;;12.02;7.57;;;21.20;74.00;;;;;;5082597;28;20445;-65
2022/09/07 05:42:12;;;;;;;11.50;8.13;;;21.10;73.90;;;;;;5076241;28;20115;-65
2022/09/07 05:44:38;;;;;;;12.60;7.60;;;21.10;73.90;;;;;;5076705;28;20031;-65
2022/09/07 05:47:04;;;;;;;11.32;7.10;;;21.20;74.00;;;;;;5093093;28;20032;-65
2022/09/07 05:49:29;;;;;;;10.80;7.28;;;21.20;74.00;;;;;;5092973;28;20032;-65
2022/09/07 05:51:55;;;;;;;11.75;7.82;;;21.20;74.00;;;;;;5091756;28;20024;-65
2022/09/07 05:54:21;;;;;;;14.00;7.13;;;21.20;74.00;;;;;;5092735;28;20020;-65
2022/09/07 05:56:46;;;;;;;10.65;7.60;;;21.20;73.90;;;;;;5066789;28;20467;-65
2022/09/07 05:59:12;;;;;;;11.00;7.80;;;21.30;73.90;;;;;;5091860;28;20032;-65
2022/09/07 06:01:38;;;;;;;11.85;8.45;;;21.30;74.00;;;;;;5064287;28;20451;-64
2022/09/07 06:04:03;;;;;;;11.60;7.55;;;21.30;73.90;;;;;;5079707;28;20047;-64
2022/09/07 06:06:29;;;;;;;12.50;8.77;;;21.30;73.70;;;;;;5081939;28;20024;-64
2022/09/07 06:08:56;;;;;;;13.43;9.05;;;21.30;73.70;;;;;;5084856;28;20032;-64
2022/09/07 06:11:24;;;;;;;13.85;9.63;;;21.30;73.60;;;;;;5083909;28;20329;-65
2022/09/07 06:13:50;;;;;;;11.18;8.05;;;21.40;73.60;;;;;;5084039;28;20024;-64
2022/09/07 06:16:17;;;;;;;15.70;9.00;;;21.40;73.50;;;;;;5063041;28;20181;-64
2022/09/07 06:18:44;;;;;;;14.00;9.60;;;21.40;73.40;;;;;;5087788;28;20043;-64
2022/09/07 06:21:15;;;;;;;13.27;9.43;;;21.50;73.50;;;;;;5085096;28;20034;-64
2022/09/07 06:23:42;;;;;;;13.25;9.32;;;21.50;73.20;;;;;;5083656;28;20044;-64
2022/09/07 06:26:09;;;;;;;12.93;10.50;;;21.60;73.00;;;;;;5086325;28;20051;-64
2022/09/07 06:28:37;;;;;;;15.25;11.35;;;21.70;72.90;;;;;;5086415;28;20024;-64
2022/09/07 06:31:06;;;;;;;15.20;9.90;;;21.80;72.70;;;;;;5085968;28;20028;-64
2022/09/07 06:33:32;;;;;;;36.40;12.20;;;21.80;72.40;;;;;;5082210;28;20028;-65
2022/09/07 06:36:00;;;;;;;21.90;11.73;;;21.90;72.20;;;;;;5070311;28;20028;-65
2022/09/07 06:38:31;;;;;;;15.10;10.13;;;21.90;71.90;;;;;;5085763;28;20020;-65
2022/09/07 06:41:23;;;;;;;14.57;10.18;;;21.90;71.90;;;;;;5085610;28;20036;-65
2022/09/07 06:43:49;;;;;;;14.57;10.48;;;21.90;72.00;;;;;;5081408;28;20032;-65
2022/09/07 06:46:16;;;;;;;13.23;10.10;;;21.80;72.20;;;;;;5089227;28;20020;-65
2022/09/07 06:48:42;;;;;;;14.65;10.02;;;21.70;72.30;;;;;;5087055;28;20035;-65
2022/09/07 06:51:14;;;;;;;14.90;10.80;;;21.80;72.20;;;;;;5062870;28;20020;-64
2022/09/07 06:53:40;;;;;;;13.32;9.75;;;21.70;72.10;;;;;;5086498;28;20364;-65
2022/09/07 06:56:09;;;;;;;12.65;10.30;;;21.70;72.00;;;;;;5090121;28;20057;-65
2022/09/07 06:58:35;;;;;;;13.65;10.32;;;21.80;72.10;;;;;;5086526;28;20032;-65
2022/09/07 07:01:06;;;;;;;16.02;11.20;;;21.80;72.10;;;;;;5090470;28;20028;-65
2022/09/07 07:03:32;;;;;;;14.98;10.95;;;21.80;72.10;;;;;;5088071;28;20148;-65
2022/09/07 07:05:57;;;;;;;34.20;13.45;;;21.70;72.10;;;;;;5085843;28;20375;-65
2022/09/07 07:08:24;;;;;;;16.45;11.70;;;21.70;72.10;;;;;;5087141;28;20028;-65
2022/09/07 07:10:50;;;;;;;15.98;10.75;;;21.70;72.20;;;;;;5085055;28;20032;-65
2022/09/07 07:13:16;;;;;;;12.15;10.10;;;21.60;72.10;;;;;;5091094;28;20032;-65
2022/09/07 07:15:42;;;;;;;13.55;10.48;;;21.60;72.30;;;;;;5089856;28;20074;-65
2022/09/07 07:18:09;;;;;;;14.77;10.15;;;21.60;72.30;;;;;;5091492;28;20024;-65
2022/09/07 07:20:39;;;;;;;12.93;10.57;;;21.60;72.20;;;;;;5085512;28;20032;-65
2022/09/07 07:23:06;;;;;;;15.20;10.40;;;21.70;72.30;;;;;;5084187;28;20430;-65
2022/09/07 07:25:35;;;;;;;25.40;11.90;;;21.70;72.20;;;;;;5082497;28;20058;-64
2022/09/07 07:28:02;;;;;;;14.88;10.85;;;21.70;72.30;;;;;;5087716;28;20020;-65
2022/09/07 07:30:28;;;;;;;13.32;11.00;;;21.60;72.30;;;;;;5088165;28;20133;-65
2022/09/07 07:33:34;;;;;;;13.60;10.80;;;21.60;72.30;;;;;;5088046;28;20112;-65
2022/09/07 07:36:27;;;;;;;13.40;10.35;;;21.60;72.40;;;;;;5085820;28;20078;-65
2022/09/07 07:38:54;;;;;;;13.10;9.90;;;21.60;72.30;;;;;;5084243;28;20037;-65
2022/09/07 07:41:24;;;;;;;13.95;11.02;;;21.60;72.50;;;;;;5093230;28;20055;-65
2022/09/07 07:43:58;;;;;;;14.68;11.43;;;21.60;72.60;;;;;;5096050;28;20105;-65
2022/09/07 07:46:25;;;;;;;14.32;11.23;;;21.60;72.60;;;;;;5093000;28;20028;-65
2022/09/07 07:48:52;;;;;;;13.10;11.23;;;21.60;72.70;;;;;;5080656;28;20168;-65
2022/09/07 07:51:18;;;;;;;15.55;12.55;;;21.60;72.70;;;;;;5083017;28;20350;-65
2022/09/07 07:53:44;;;;;;;14.93;11.95;;;21.60;72.70;;;;;;5084005;28;20032;-64
2022/09/07 07:56:11;;;;;;;15.75;12.65;;;21.60;72.70;;;;;;5076898;28;20375;-65
2022/09/07 07:58:38;;;;;;;15.00;11.57;;;21.70;72.40;;;;;;5087618;28;20028;-65
2022/09/07 08:01:10;;;;;;;16.25;11.98;;;21.80;72.20;;;;;;5093986;28;20051;-65
2022/09/07 08:03:38;;;;;;;16.35;11.45;;;21.90;72.20;;;;;;5085277;28;20115;-65
2022/09/07 08:06:12;;;;;;;14.57;11.52;;;22.10;71.90;;;;;;5087795;28;20316;-65
2022/09/07 08:08:38;;;;;;;14.05;11.45;;;22.30;71.60;;;;;;5090709;28;20036;-65
2022/09/07 08:11:07;;;;;;;16.05;11.98;;;22.40;71.00;;;;;;5091266;28;20031;-65
2022/09/07 08:13:36;;;;;;;14.65;11.43;;;22.40;70.80;;;;;;5090701;28;20055;-65
2022/09/07 08:16:04;;;;;;;15.48;12.07;;;22.40;70.70;;;;;;5094139;28;20040;-65
2022/09/07 08:18:31;;;;;;;16.40;12.07;;;22.40;70.80;;;;;;5096129;28;20027;-65
2022/09/07 08:21:02;;;;;;;17.92;12.32;;;22.50;70.80;;;;;;5091998;28;20501;-65
2022/09/07 08:23:30;;;;;;;13.68;10.68;;;22.70;70.20;;;;;;5089969;28;20052;-65
2022/09/07 08:26:00;;;;;;;16.60;12.52;;;22.90;69.90;;;;;;5086424;28;20048;-66
2022/09/07 08:28:27;;;;;;;16.00;12.30;;;23.00;69.60;;;;;;5078276;28;20034;-65
2022/09/07 08:30:53;;;;;;;17.42;13.90;;;23.30;69.00;;;;;;5088223;28;20120;-65
2022/09/07 08:33:19;;;;;;;17.40;13.35;;;23.50;68.50;;;;;;5080812;28;20024;-65
2022/09/07 08:35:59;;;;;;;19.05;12.80;;;23.60;68.30;;;;;;5090078;28;20040;-65
2022/09/07 08:38:25;;;;;;;15.93;12.90;;;23.60;68.20;;;;;;5091089;28;20040;-66
2022/09/07 08:40:52;;;;;;;16.83;13.30;;;23.60;68.20;;;;;;5075787;28;20411;-65
2022/09/07 08:43:48;;;;;;;14.95;12.43;;;23.60;68.30;;;;;;5091833;28;20041;-65
2022/09/07 08:46:27;;;;;;;14.07;11.43;;;23.50;68.20;;;;;;5076195;28;20037;-65
2022/09/07 08:48:54;;;;;;;15.25;13.40;;;23.50;68.50;;;;;;5084949;28;20031;-65
2022/09/07 08:51:35;;;;;;;17.02;12.45;;;23.80;68.10;;;;;;5094157;28;20032;-65
2022/09/07 08:54:03;;;;;;;14.52;11.93;;;23.90;67.40;;;;;;5094414;28;20103;-65
2022/09/07 08:56:41;;;;;;;15.52;13.18;;;24.00;67.20;;;;;;5094576;28;20032;-65
2022/09/07 08:59:23;;;;;;;15.60;12.38;;;23.90;67.10;;;;;;5085953;28;20046;-65
2022/09/07 09:01:48;;;;;;;15.50;11.63;;;24.00;67.10;;;;;;5072486;28;20037;-65
2022/09/07 09:04:28;;;;;;;15.77;12.90;;;24.00;67.00;;;;;;5083745;28;20017;-65
2022/09/07 09:07:03;;;;;;;14.95;12.70;;;24.10;67.10;;;;;;5088137;28;20144;-65
2022/09/07 09:10:00;;;;;;;17.38;12.32;;;24.20;66.90;;;;;;5090868;28;20073;-65
2022/09/07 09:12:32;;;;;;;14.93;11.57;;;24.40;66.50;;;;;;5089740;28;20042;-65
2022/09/07 09:15:16;;;;;;;15.07;12.35;;;24.60;66.10;;;;;;5093327;28;20036;-65
2022/09/07 09:18:01;;;;;;;16.08;12.25;;;24.80;65.40;;;;;;5088458;28;20055;-66
2022/09/07 09:20:36;;;;;;;15.93;12.77;;;25.00;64.80;;;;;;5076503;28;20063;-65
2022/09/07 09:23:16;;;;;;;17.00;12.25;;;25.00;65.20;;;;;;5073048;28;20108;-65
2022/09/07 09:26:10;;;;;;;15.57;12.95;;;25.10;64.40;;;;;;5086934;28;20038;-65
2022/09/07 09:28:37;;;;;;;14.23;10.65;;;25.10;64.00;;;;;;5089168;28;20159;-65
2022/09/07 09:31:03;;;;;;;15.60;11.02;;;25.20;63.80;;;;;;5091190;28;20345;-66
2022/09/07 09:33:29;;;;;;;13.93;11.35;;;25.30;63.70;;;;;;5087717;28;20116;-65
2022/09/07 09:35:58;;;;;;;14.15;10.75;;;25.30;63.70;;;;;;5084048;28;20108;-65
2022/09/07 09:38:38;;;;;;;15.40;12.15;;;25.30;63.50;;;;;;5093214;28;20074;-65
2022/09/07 09:41:08;;;;;;;13.30;10.43;;;25.30;63.30;;;;;;5081175;28;20469;-65
2022/09/07 09:43:53;;;;;;;13.13;11.33;;;25.50;63.00;;;;;;5081284;28;20038;-65
2022/09/07 09:46:31;;;;;;;13.50;8.98;;;25.70;62.50;;;;;;5088151;28;20413;-65
2022/09/07 09:49:18;;;;;;;12.85;9.73;;;25.90;62.20;;;;;;5087508;28;20407;-65
2022/09/07 09:51:51;;;;;;;13.32;10.30;;;26.10;61.70;;;;;;5093603;28;20020;-65
2022/09/07 09:54:38;;;;;;;11.63;9.25;;;26.30;61.20;;;;;;5093369;28;20448;-66
2022/09/07 09:57:04;;;;;;;12.73;10.35;;;26.40;60.50;;;;;;5083262;28;20455;-65
2022/09/07 09:59:31;;;;;;;12.70;9.65;;;26.60;60.20;;;;;;5084016;28;20060;-65
2022/09/07 10:01:58;;;;;;;14.27;10.55;;;26.80;59.90;;;;;;5087848;28;20434;-65
2022/09/07 10:04:28;;;;;;;11.50;9.70;;;26.90;59.60;;;;;;5075063;28;20103;-65
2022/09/07 10:06:56;;;;;;;12.32;8.90;;;26.80;59.30;;;;;;5092992;28;20085;-65
2022/09/07 10:09:37;;;;;;;11.95;9.48;;;26.80;59.20;;;;;;5084276;28;20032;-65
2022/09/07 10:12:04;;;;;;;;;;;26.80;58.90;;;;;;5083535;28;20111;-65
2022/09/07 10:14:42;;;;;;;11.40;8.52;;;26.70;59.40;;;;;;5086810;28;19924;-65
2022/09/07 10:17:13;;;;;;;13.38;9.90;;;26.70;59.30;;;;;;5056377;28;20326;-69
2022/09/07 10:19:41;;;;;;;11.18;8.93;;;26.90;58.80;;;;;;5073683;28;20033;-64
2022/09/07 10:22:31;;;;;;;11.55;9.27;;;27.00;58.50;;;;;;5079910;28;20021;-65
2022/09/07 10:24:59;;;;;;;12.60;10.03;;;27.10;58.00;;;;;;5094380;28;20028;-64
2022/09/07 10:27:34;;;;;;;12.00;9.90;;;27.30;57.70;;;;;;5090040;28;20028;-65
2022/09/07 10:30:01;;;;;;;12.95;9.02;;;27.30;57.40;;;;;;5086907;28;20342;-64
2022/09/07 10:32:54;;;;;;;14.13;9.40;;;27.40;57.30;;;;;;5086577;28;20465;-65
2022/09/07 10:35:27;;;;;;;12.30;8.80;;;27.50;57.60;;;;;;5094208;28;20071;-65
2022/09/07 10:38:05;;;;;;;9.95;8.30;;;27.50;57.30;;;;;;5076055;28;20024;-65
2022/09/07 10:40:34;;;;;;;12.63;8.20;;;27.40;56.50;;;;;;5092467;28;20072;-64
2022/09/07 10:43:17;;;;;;;9.90;7.53;;;27.30;56.70;;;;;;5091619;28;20352;-64
2022/09/07 10:46:15;;;;;;;12.18;7.75;;;27.30;56.60;;;;;;5083218;28;20036;-64
2022/09/07 10:49:17;;;;;;;10.07;7.70;;;27.40;56.70;;;;;;5096042;28;20338;-64
2022/09/07 10:52:01;;;;;;;10.63;7.60;;;27.30;56.40;;;;;;5084750;28;20028;-64
2022/09/07 10:54:51;;;;;;;10.52;7.40;;;27.00;56.70;;;;;;5092279;28;20024;-63
2022/09/07 10:57:27;;;;;;;9.90;7.53;;;27.00;56.90;;;;;;5083259;28;20158;-63
2022/09/07 11:00:10;;;;;;;9.82;6.82;;;27.00;56.60;;;;;;5078343;28;20032;-64
2022/09/07 11:03:13;;;;;;;9.45;6.45;;;27.00;56.50;;;;;;5092398;28;20330;-63
2022/09/07 11:06:11;;;;;;;8.57;5.65;;;27.00;56.40;;;;;;5090043;28;20036;-64
2022/09/07 11:08:40;;;;;;;7.97;5.28;;;27.00;56.30;;;;;;5078062;28;20024;-63
2022/09/07 11:11:17;;;;;;;10.10;5.78;;;26.90;56.40;;;;;;5082464;28;20020;-64
2022/09/07 11:13:45;;;;;;;9.50;6.38;;;26.70;56.50;;;;;;5091984;28;20052;-64
2022/09/07 11:16:16;;;;;;;9.60;6.22;;;26.60;56.70;;;;;;5094037;28;20495;-64
2022/09/07 11:18:59;;;;;;;11.93;6.43;;;26.50;57.00;;;;;;5094226;28;20154;-64
2022/09/07 11:21:35;;;;;;;9.27;5.85;;;26.60;56.80;;;;;;5089306;28;20035;-64
2022/09/07 11:24:17;;;;;;;9.07;5.80;;;26.50;56.80;;;;;;5073505;28;20357;-64
2022/09/07 11:27:07;;;;;;;9.50;5.32;;;26.40;57.10;;;;;;5096779;28;20042;-63
2022/09/07 11:29:57;;;;;;;9.97;4.60;;;26.30;57.90;;;;;;5095358;28;20032;-64
2022/09/07 11:32:31;;;;;;;8.02;4.32;;;26.50;57.00;;;;;;5095704;28;20332;-64
2022/09/07 11:35:20;;;;;;;9.32;4.40;;;26.70;56.50;;;;;;5091748;28;20039;-63
2022/09/07 11:37:58;;;;;;;8.38;4.15;;;27.00;55.90;;;;;;5096348;28;20127;-64
2022/09/07 11:40:29;;;;;;;8.65;3.90;;;27.20;55.40;;;;;;5081839;28;20345;-63
2022/09/07 11:43:16;;;;;;;7.38;3.63;;;27.30;55.20;;;;;;5085586;28;20043;-64
2022/09/07 11:45:53;;;;;;;7.68;3.88;;;27.40;54.80;;;;;;5065552;28;20192;-64
2022/09/07 11:48:38;;;;;;;7.07;3.70;;;27.30;54.70;;;;;;5096691;28;20451;-67
2022/09/07 11:51:13;;;;;;;7.32;3.67;;;27.20;54.80;;;;;;5082217;28;20024;-66
2022/09/07 11:53:46;;;;;;;8.25;4.30;;;27.30;54.80;;;;;;5078589;28;20035;-66
2022/09/07 11:56:20;;;;;;;8.63;4.03;;;27.40;54.40;;;;;;5080738;28;20036;-64
2022/09/07 11:59:25;;;;;;;7.40;3.60;;;27.50;54.00;;;;;;5084816;28;20500;-63
2022/09/07 12:02:16;;;;;;;7.85;3.85;;;27.40;53.90;;;;;;4996571;28;20033;-64
2022/09/07 12:05:05;;;;;;;7.32;3.33;;;27.20;54.10;;;;;;4989740;28;20129;-63
2022/09/07 12:07:36;;;;;;;8.43;4.25;;;27.00;54.30;;;;;;4954201;28;20366;-64
2022/09/07 12:10:28;;;;;;;7.43;3.50;;;27.00;54.30;;;;;;4996515;28;20073;-64
2022/09/07 12:13:24;;;;;;;7.30;3.58;;;26.90;54.40;;;;;;4996689;28;20042;-64
2022/09/07 12:15:55;;;;;;;7.38;4.20;;;26.90;54.40;;;;;;5005741;28;20332;-64
2022/09/07 12:18:50;;;;;;;8.15;3.42;;;27.00;54.40;;;;;;5002578;28;20036;-64
2022/09/07 12:21:33;;;;;;;7.75;3.63;;;27.00;54.10;;;;;;4998821;28;20053;-64
2022/09/07 12:23:59;;;;;;;9.65;4.15;;;26.90;54.20;;;;;;5014404;28;20447;-64
2022/09/07 12:26:34;;;;;;;7.22;3.97;;;26.70;54.40;;;;;;4998900;28;20034;-64
2022/09/07 12:28:59;;;;;;;6.63;3.55;;;26.60;54.60;;;;;;4986161;28;20042;-64
2022/09/07 12:31:43;;;;;;;8.35;4.25;;;26.50;54.80;;;;;;4990642;28;20041;-64
2022/09/07 12:34:30;;;;;;;8.23;3.63;;;26.40;54.80;;;;;;5086580;28;20069;-64
2022/09/07 12:37:25;;;;;;;7.70;3.28;;;26.30;55.00;;;;;;5080176;28;20028;-64
2022/09/07 12:40:26;;;;;;;6.95;3.25;;;26.40;55.20;;;;;;5080106;28;20063;-64
2022/09/07 12:43:11;;;;;;;6.85;2.70;;;26.50;55.00;;;;;;5089446;28;20475;-64
2022/09/07 12:45:37;;;;;;;6.18;2.88;;;26.60;54.80;;;;;;5065435;28;20040;-65
2022/09/07 12:48:26;;;;;;;6.57;2.50;;;26.50;54.60;;;;;;5076853;28;20310;-64
2022/09/07 12:51:15;;;;;;;6.10;2.15;;;26.50;54.60;;;;;;5050891;28;20047;-64
2022/09/07 12:53:40;;;;;;;5.40;2.17;;;26.40;54.60;;;;;;5087572;28;20046;-65
2022/09/07 12:56:19;;;;;;;5.95;2.10;;;26.50;54.40;;;;;;5094464;28;20036;-65
2022/09/07 12:59:09;;;;;;;5.47;2.03;;;26.50;54.00;;;;;;5091618;28;20032;-65
2022/09/07 13:02:12;;;;;;;6.63;2.03;;;26.50;53.80;;;;;;5090341;28;20020;-65
2022/09/07 13:05:09;;;;;;;7.47;2.00;;;26.50;53.70;;;;;;5088690;28;20036;-65
2022/09/07 13:08:06;;;;;;;5.55;2.35;;;26.60;53.70;;;;;;5088471;28;20078;-65
2022/09/07 13:10:38;;;;;;;5.15;1.98;;;26.60;53.50;;;;;;5087051;28;20027;-65